Time;durP1;ratioP1;P1;durP2;ratioP2;P2;SDS_P1;SDS_P2;PMS_P1;PMS_P2;Temp;Humidity;BMP_temperature;BMP_pressure;BME280_temperature;BME280_humidity;BME280_pressure;Samples;Min_cycle;Max_cycle;Signal;HPM_P1;HPM_P2
2023/05/14 00:05:32;;;;;;;12.68;11.32;;;;;;;12.53;72.10;101721.75;5255867;24;20058;-80
2023/05/14 00:07:57;;;;;;;12.95;11.68;;;;;;;12.41;71.88;101717.88;4839438;29;20034;-80
2023/05/14 00:10:23;;;;;;;13.60;12.18;;;;;;;12.36;72.40;101722.97;4841508;29;20495;-79
2023/05/14 00:12:50;;;;;;;14.48;11.93;;;;;;;12.32;72.62;101721.72;4836451;29;20174;-79
2023/05/14 00:15:15;;;;;;;14.80;11.80;;;;;;;12.25;72.56;101725.13;4822056;29;20043;-80
2023/05/14 00:17:41;;;;;;;12.50;11.13;;;;;;;12.15;73.10;101715.66;4824266;29;20041;-80
2023/05/14 00:20:06;;;;;;;13.35;11.95;;;;;;;12.06;73.35;101715.75;4840306;29;20040;-80
2023/05/14 00:22:32;;;;;;;15.73;13.05;;;;;;;11.97;73.94;101706.88;4841094;29;20607;-80
2023/05/14 00:24:58;;;;;;;14.93;13.15;;;;;;;11.91;74.14;101709.47;4840623;29;20022;-80
2023/05/14 00:27:23;;;;;;;13.38;11.45;;;;;;;11.81;74.24;101712.44;4823233;29;20478;-80
2023/05/14 00:29:48;;;;;;;19.25;13.30;;;;;;;11.76;75.03;101710.28;4820349;29;20447;-80
2023/05/14 00:32:14;;;;;;;15.80;13.75;;;;;;;11.76;75.09;101715.66;4822806;29;20033;-81
2023/05/14 00:34:39;;;;;;;15.38;13.68;;;;;;;11.68;75.55;101710.38;4821960;29;20123;-80
2023/05/14 00:37:05;;;;;;;13.88;12.48;;;;;;;11.65;75.55;101708.03;4834805;29;20034;-80
2023/05/14 00:39:30;;;;;;;15.40;13.77;;;;;;;11.60;75.83;101713.13;4839356;29;20038;-80
2023/05/14 00:44:31;;;;;;;16.40;14.68;;;;;;;11.48;76.39;101712.72;5805123;24;20029;-81
2023/05/14 00:46:57;;;;;;;16.98;15.18;;;;;;;11.39;76.56;101706.56;4821814;29;20053;-81
2023/05/14 00:49:22;;;;;;;16.27;13.35;;;;;;;11.34;76.75;101715.19;4819447;29;20041;-81
2023/05/14 00:51:47;;;;;;;18.98;15.30;;;;;;;11.33;77.28;101701.91;4822713;29;20332;-81
2023/05/14 00:54:14;;;;;;;19.88;15.18;;;;;;;11.26;77.73;101696.41;4822468;29;20034;-80
2023/05/14 00:56:39;;;;;;;17.88;15.75;;;;;;;11.22;77.99;101697.78;4804730;29;20033;-80
2023/05/14 00:59:06;;;;;;;18.88;15.15;;;;;;;11.16;78.16;101698.50;4818744;29;20026;-80
2023/05/14 01:01:31;;;;;;;21.58;15.98;;;;;;;11.07;78.38;101690.47;4823179;29;20030;-80
2023/05/14 01:03:57;;;;;;;20.85;17.17;;;;;;;11.10;78.67;101700.06;4820243;29;20026;-81
2023/05/14 01:07:03;;;;;;;20.40;16.70;;;;;;;11.04;78.88;101693.53;4821964;29;20023;-79
2023/05/14 01:09:51;;;;;;;18.77;16.45;;;;;;;10.96;79.30;101693.56;4803646;29;20337;-79
2023/05/14 01:12:54;;;;;;;19.13;16.33;;;;;;;10.90;79.30;101689.75;4804203;29;20483;-80
2023/05/14 01:15:25;;;;;;;20.42;16.23;;;;;;;10.81;79.48;101690.81;4799635;29;20050;-81
2023/05/14 01:17:54;;;;;;;20.40;16.80;;;;;;;10.79;79.64;101689.31;4804673;29;20038;-80
2023/05/14 01:20:19;;;;;;;19.70;17.63;;;;;;;10.74;79.95;101689.84;4821906;29;20109;-80
2023/05/14 01:22:45;;;;;;;19.90;17.80;;;;;;;10.73;80.24;101694.41;4806131;29;20117;-80
2023/05/14 01:25:10;;;;;;;22.65;18.85;;;;;;;10.68;80.54;101691.41;4820618;29;20034;-79
2023/05/14 01:28:01;;;;;;;20.20;17.60;;;;;;;10.72;80.62;101692.72;4819044;29;20038;-80
2023/05/14 01:30:52;;;;;;;20.42;17.77;;;;;;;10.66;80.37;101681.84;4806399;29;20034;-80
2023/05/14 01:33:18;;;;;;;22.05;18.40;;;;;;;10.60;80.57;101678.81;4790665;29;20042;-80
2023/05/14 01:35:43;;;;;;;20.48;18.15;;;;;;;10.55;80.74;101681.19;4789631;29;20030;-80
2023/05/14 01:38:10;;;;;;;21.25;18.52;;;;;;;10.53;80.74;101677.00;4823016;29;20042;-85
2023/05/14 01:40:35;;;;;;;24.90;19.77;;;;;;;10.47;81.01;101673.19;4805703;29;20121;-85
2023/05/14 01:43:01;;;;;;;22.92;18.67;;;;;;;10.42;81.13;101679.06;4822344;29;20094;-86
2023/05/14 01:45:26;;;;;;;23.33;20.17;;;;;;;10.43;81.27;101683.44;4821938;29;20503;-86
2023/05/14 01:47:52;;;;;;;;;;;;;;;10.30;81.37;101681.31;4805022;29;20041;-86
2023/05/14 01:50:17;;;;;;;22.50;18.35;;;;;;;10.27;81.41;101678.09;4820906;29;19912;-86
2023/05/14 01:52:42;;;;;;;;;;;;;;;10.16;81.91;101674.78;4827018;29;20035;-87
2023/05/14 01:55:08;;;;;;;23.30;19.43;;;;;;;10.10;82.09;101677.34;4829011;29;19939;-87
2023/05/14 01:57:33;;;;;;;23.38;19.95;;;;;;;10.08;82.33;101680.19;4822463;29;20029;-86
2023/05/14 01:59:58;;;;;;;;;;;;;;;9.98;82.43;101661.53;4824444;29;20089;-87
2023/05/14 02:02:24;;;;;;;26.77;20.17;;;;;;;9.98;82.68;101666.09;4822489;29;20282;-86
2023/05/14 02:04:49;;;;;;;23.15;20.63;;;;;;;9.95;82.85;101663.75;4823426;29;20494;-86
2023/05/14 02:07:15;;;;;;;25.33;19.70;;;;;;;9.89;82.85;101661.75;4822576;29;20048;-86
2023/05/14 02:09:40;;;;;;;26.40;20.98;;;;;;;9.85;83.08;101663.94;4822536;29;20415;-87
2023/05/14 02:12:06;;;;;;;;;;;;;;;9.79;83.29;101667.34;4825027;29;20026;-87
2023/05/14 02:14:31;;;;;;;24.17;20.58;;;;;;;9.80;83.22;101666.31;4833136;29;19921;-87
2023/05/14 02:17:00;;;;;;;25.83;20.95;;;;;;;9.78;83.73;101661.09;4836059;29;20033;-86
2023/05/14 02:19:25;;;;;;;25.13;19.67;;;;;;;9.72;82.94;101656.41;4839421;29;20658;-86
2023/05/14 02:21:51;;;;;;;24.85;20.33;;;;;;;9.69;83.00;101656.78;4833281;29;20090;-87
2023/05/14 02:24:16;;;;;;;;;;;;;;;9.58;83.93;101651.72;4823721;29;20042;-87
2023/05/14 02:26:41;;;;;;;24.23;18.90;;;;;;;9.61;83.76;101649.56;4825185;29;19927;-86
2023/05/14 02:29:07;;;;;;;24.05;20.05;;;;;;;9.59;83.88;101654.28;4824075;29;20038;-86
2023/05/14 02:31:32;;;;;;;;;;;;;;;9.49;84.20;101654.44;4826571;29;20139;-86
2023/05/14 02:33:59;;;;;;;24.90;19.48;;;;;;;9.50;83.70;101649.91;4820912;29;19921;-86
2023/05/14 02:36:24;;;;;;;24.45;19.40;;;;;;;9.43;84.19;101652.44;4821789;29;20120;-86
2023/05/14 02:38:50;;;;;;;23.98;19.88;;;;;;;9.38;84.09;101641.34;4819506;29;20038;-86
2023/05/14 02:41:15;;;;;;;;;;;;;;;9.30;83.76;101646.75;4819165;29;20372;-86
2023/05/14 02:43:40;;;;;;;26.43;21.43;;;;;;;9.27;84.07;101645.22;4822010;29;19924;-87
2023/05/14 02:46:06;;;;;;;26.70;20.95;;;;;;;9.31;84.79;101648.41;4821473;29;20046;-86
2023/05/14 02:48:31;;;;;;;;;;;;;;;9.23;85.07;101643.88;4820543;29;20023;-87
2023/05/14 02:50:56;;;;;;;22.63;19.40;;;;;;;9.20;84.80;101644.22;4831279;29;19921;-87
2023/05/14 02:53:22;;;;;;;;;;;;;;;9.11;84.88;101640.69;4839468;29;20343;-87
2023/05/14 02:55:47;;;;;;;24.80;19.43;;;;;;;9.09;85.28;101640.84;4836659;29;19954;-86
2023/05/14 02:58:12;;;;;;;;;;;;;;;9.02;84.80;101636.31;4818108;29;20448;-86
2023/05/14 03:00:37;;;;;;;29.57;22.03;;;;;;;9.01;85.35;101637.31;4821832;29;19937;-87
2023/05/14 03:03:03;;;;;;;;;;;;;;;8.93;85.69;101641.69;4819727;29;20046;-86
2023/05/14 03:05:28;;;;;;;26.63;21.23;;;;;;;8.93;85.90;101638.16;4820849;29;19921;-87
2023/05/14 03:07:53;;;;;;;;;;;;;;;8.87;86.07;101642.34;4819842;29;20455;-86
2023/05/14 03:10:19;;;;;;;31.60;23.10;;;;;;;8.85;86.73;101640.84;4814429;29;19925;-86
2023/05/14 03:12:44;;;;;;;;;;;;;;;8.82;86.94;101642.03;4821066;29;20070;-87
2023/05/14 03:15:10;;;;;;;30.23;23.60;;;;;;;8.82;87.51;101633.97;4804443;29;19920;-87
2023/05/14 03:17:35;;;;;;;;;;;;;;;8.72;87.11;101631.44;4819437;29;20370;-87
2023/05/14 03:20:00;;;;;;;31.47;22.90;;;;;;;8.69;87.52;101637.13;4820527;29;19928;-87
2023/05/14 03:22:26;;;;;;;;;;;;;;;8.62;87.72;101638.78;4820135;29;20311;-87
2023/05/14 03:24:51;;;;;;;26.43;20.43;;;;;;;8.61;87.27;101643.34;4804335;29;19964;-86
2023/05/14 03:27:16;;;;;;;;;;;;;;;8.57;87.26;101646.47;4823978;29;20026;-87
2023/05/14 03:29:42;;;;;;;30.47;22.13;;;;;;;8.60;87.74;101649.69;4822754;29;19969;-87
2023/05/14 03:32:07;;;;;;;;;;;;;;;8.54;86.92;101644.97;4822443;29;20086;-87
2023/05/14 03:34:32;;;;;;;26.57;19.90;;;;;;;8.55;87.24;101648.53;4819155;29;19917;-87
2023/05/14 03:36:57;;;;;;;;;;;;;;;8.48;86.78;101640.25;4819285;29;20774;-86
2023/05/14 03:39:23;;;;;;;27.47;21.07;;;;;;;8.48;86.94;101643.78;4819303;29;19970;-87
2023/05/14 03:41:48;;;;;;;;;;;;;;;8.43;87.48;101642.56;4824374;29;20034;-87
2023/05/14 03:44:14;;;;;;;34.37;23.93;;;;;;;8.42;87.43;101636.34;4823066;29;19928;-87
2023/05/14 03:46:39;;;;;;;;;;;;;;;8.42;87.96;101636.34;4824007;29;20106;-87
2023/05/14 03:49:05;;;;;;;31.03;23.07;;;;;;;8.46;87.84;101635.03;4823159;29;20035;-87
2023/05/14 03:51:30;;;;;;;33.75;24.85;;;;;;;8.50;88.03;101627.53;4822086;29;20300;-87
2023/05/14 03:53:57;;;;;;;;;;;;;;;8.52;87.79;101635.41;4824540;29;20576;-87
2023/05/14 03:56:22;;;;;;;31.17;22.90;;;;;;;8.55;87.48;101625.19;4824111;29;19935;-87
2023/05/14 03:58:47;;;;;;;;;;;;;;;8.55;87.51;101625.19;4832242;29;20036;-86
2023/05/14 04:01:13;;;;;;;28.67;21.30;;;;;;;8.63;87.52;101625.22;4829432;29;19920;-86
2023/05/14 04:03:38;;;;;;;;;;;;;;;8.63;87.64;101627.03;4823603;29;20044;-86
2023/05/14 04:06:04;;;;;;;29.98;22.15;;;;;;;8.68;87.75;101622.03;4822891;29;20051;-86
2023/05/14 04:08:29;;;;;;;30.52;23.08;;;;;;;8.74;87.59;101625.91;4826355;29;20471;-86
2023/05/14 04:10:55;;;;;;;;;;;;;;;8.75;87.72;101632.94;4824084;29;20038;-86
2023/05/14 04:13:20;;;;;;;30.50;22.00;;;;;;;8.80;87.54;101625.25;4821964;29;19924;-86
2023/05/14 04:15:45;;;;;;;;;;;;;;;8.80;86.39;101623.38;4825547;29;20042;-86
2023/05/14 04:18:11;;;;;;;26.27;20.52;;;;;;;8.84;86.43;101631.94;4824689;29;19924;-86
2023/05/14 04:20:36;;;;;;;;;;;;;;;8.89;86.14;101632.28;4843602;29;20082;-86
2023/05/14 04:23:01;;;;;;;25.23;20.67;;;;;;;8.98;86.53;101629.63;4839987;29;19936;-88
2023/05/14 04:25:27;;;;;;;;;;;;;;;9.02;86.59;101630.94;4828816;29;20733;-87
2023/05/14 04:27:52;;;;;;;26.10;20.88;;;;;;;9.12;86.61;101630.78;4822731;29;19920;-86
2023/05/14 04:30:17;;;;;;;;;;;;;;;9.19;86.04;101631.78;4824908;29;20034;-86
2023/05/14 04:32:43;;;;;;;29.83;21.50;;;;;;;9.30;85.89;101633.31;4822189;29;19921;-86
2023/05/14 04:35:09;;;;;;;;;;;;;;;9.39;85.32;101635.81;4818652;29;20713;-87
2023/05/14 04:37:34;;;;;;;28.83;21.35;;;;;;;9.54;85.13;101632.44;4824002;29;19920;-86
2023/05/14 04:40:00;;;;;;;26.08;21.40;;;;;;;9.64;84.30;101630.38;4830118;29;20525;-86
2023/05/14 04:42:25;;;;;;;28.75;21.90;;;;;;;9.75;83.89;101631.03;4822047;29;20026;-86
2023/05/14 04:44:51;;;;;;;;;;;;;;;9.84;83.41;101630.84;4832170;29;20043;-87
2023/05/14 04:47:18;;;;;;;23.85;19.90;;;;;;;10.01;83.18;101622.72;4821613;29;19921;-86
2023/05/14 04:49:44;;;;;;;26.40;21.13;;;;;;;10.16;82.40;101620.97;4828769;29;20026;-86
2023/05/14 04:52:09;;;;;;;25.77;20.88;;;;;;;10.27;82.08;101630.50;4821270;29;20026;-87
2023/05/14 04:54:34;;;;;;;23.70;19.63;;;;;;;10.39;81.39;101617.53;4821501;29;20083;-87
2023/05/14 04:57:02;;;;;;;;;;;;;;;10.49;81.47;101621.84;4822163;29;20035;-87
2023/05/14 04:59:28;;;;;;;25.17;19.67;;;;;;;10.67;80.57;101622.41;4821876;29;19952;-87
2023/05/14 05:01:54;;;;;;;24.00;18.80;;;;;;;10.85;80.25;101630.19;4821757;29;20046;-85
2023/05/14 05:04:19;;;;;;;25.23;19.40;;;;;;;11.39;78.87;101631.06;4821363;29;20074;-86
2023/05/14 05:06:45;;;;;;;25.95;19.17;;;;;;;12.23;76.30;101635.41;4821609;29;20573;-84
2023/05/14 05:09:10;;;;;;;23.13;18.65;;;;;;;13.03;72.46;101626.50;4821449;29;20557;-85
2023/05/14 05:11:36;;;;;;;24.77;19.08;;;;;;;13.80;69.59;101630.19;4822621;29;20038;-85
2023/05/14 05:14:02;;;;;;;21.73;19.40;;;;;;;14.05;67.45;101627.00;4828205;29;20118;-84
2023/05/14 05:16:27;;;;;;;22.40;18.70;;;;;;;14.04;67.64;101633.44;4822463;29;20483;-85
2023/05/14 05:18:52;;;;;;;23.15;19.48;;;;;;;14.22;67.21;101635.59;4826021;29;20440;-85
2023/05/14 05:21:18;;;;;;;23.40;19.58;;;;;;;14.13;66.93;101635.97;4822087;29;20039;-86
2023/05/14 05:23:43;;;;;;;22.02;19.75;;;;;;;14.04;67.09;101638.00;4816144;29;20444;-87
2023/05/14 05:26:08;;;;;;;25.02;19.92;;;;;;;13.79;67.25;101641.22;4821607;29;20030;-86
2023/05/14 05:28:34;;;;;;;22.40;19.63;;;;;;;13.57;68.26;101635.06;4822644;29;20039;-86
2023/05/14 05:30:59;;;;;;;22.30;18.85;;;;;;;13.23;69.34;101640.16;4822772;29;20039;-86
2023/05/14 05:33:25;;;;;;;22.08;19.65;;;;;;;13.06;70.84;101639.59;4832207;29;20094;-86
2023/05/14 05:35:51;;;;;;;22.90;18.95;;;;;;;12.93;71.33;101639.47;4831235;29;20042;-86
2023/05/14 05:38:17;;;;;;;23.42;19.88;;;;;;;12.94;71.72;101642.00;4824324;29;20183;-86
2023/05/14 05:40:43;;;;;;;23.05;19.95;;;;;;;12.85;71.95;101638.59;4823124;29;20058;-85
2023/05/14 05:43:08;;;;;;;22.55;20.10;;;;;;;12.86;71.25;101637.56;4821229;29;20475;-86
2023/05/14 05:45:34;;;;;;;24.50;18.88;;;;;;;13.00;71.19;101634.97;4835981;29;20042;-85
2023/05/14 05:47:59;;;;;;;24.02;18.75;;;;;;;13.03;70.85;101627.31;4834133;29;20475;-86
2023/05/14 05:50:25;;;;;;;23.33;19.45;;;;;;;13.14;70.84;101628.66;4825655;29;20030;-86
2023/05/14 05:52:50;;;;;;;22.60;19.23;;;;;;;12.97;70.82;101636.19;4823109;29;20026;-87
2023/05/14 05:55:16;;;;;;;22.33;19.23;;;;;;;13.12;71.00;101627.19;4784572;29;20030;-86
2023/05/14 05:57:41;;;;;;;23.13;17.98;;;;;;;13.21;69.78;101631.41;4824916;29;20018;-88
2023/05/14 06:00:11;;;;;;;24.60;18.50;;;;;;;13.25;69.65;101629.16;4826351;29;20063;-88
2023/05/14 06:02:37;;;;;;;23.05;19.00;;;;;;;13.32;70.32;101636.31;4831501;29;20038;-88
2023/05/14 06:05:03;;;;;;;22.67;19.40;;;;;;;13.07;71.06;101632.34;4846618;29;20018;-87
2023/05/14 06:07:28;;;;;;;20.02;17.90;;;;;;;13.33;71.60;101640.66;4840689;29;20030;-89
2023/05/14 06:09:53;;;;;;;22.15;19.83;;;;;;;13.31;71.00;101645.44;4835539;29;20034;-88
2023/05/14 06:12:20;;;;;;;23.08;19.30;;;;;;;13.64;70.56;101647.59;4823787;29;20026;-86
2023/05/14 06:14:45;;;;;;;20.48;17.70;;;;;;;14.08;69.55;101645.56;4826101;29;20091;-86
2023/05/14 06:17:11;;;;;;;23.60;19.35;;;;;;;14.20;68.56;101655.81;4825133;29;20098;-89
2023/05/14 06:19:36;;;;;;;23.20;18.85;;;;;;;14.85;66.34;101652.69;4820977;29;20030;-83
2023/05/14 06:22:02;;;;;;;22.67;18.52;;;;;;;15.15;65.34;101657.75;4821705;29;20371;-85
2023/05/14 06:24:27;;;;;;;21.83;18.50;;;;;;;15.12;65.24;101652.75;4820357;29;20387;-85
2023/05/14 06:26:52;;;;;;;23.15;17.85;;;;;;;15.16;65.02;101659.44;4818763;29;20022;-84
2023/05/14 06:29:18;;;;;;;19.52;17.55;;;;;;;16.25;62.63;101663.63;4817474;29;20032;-83
2023/05/14 06:31:43;;;;;;;21.58;17.48;;;;;;;16.74;59.86;101659.44;4819853;29;20026;-84
2023/05/14 06:34:10;;;;;;;20.38;18.10;;;;;;;16.90;60.27;101651.81;4818655;29;20106;-81
2023/05/14 06:36:35;;;;;;;21.10;16.90;;;;;;;17.65;56.70;101655.59;4816094;29;20506;-84
2023/05/14 06:39:00;;;;;;;18.67;15.02;;;;;;;19.23;53.97;101657.59;4818072;29;20059;-83
2023/05/14 06:41:26;;;;;;;18.35;16.45;;;;;;;19.72;51.74;101659.25;4823511;29;20052;-83
2023/05/14 06:43:51;;;;;;;17.58;15.77;;;;;;;20.77;49.91;101663.03;4817083;29;20086;-83
2023/05/14 06:46:17;;;;;;;16.98;15.20;;;;;;;22.50;45.04;101656.81;4805375;29;20575;-84
2023/05/14 06:48:42;;;;;;;16.35;14.70;;;;;;;22.18;44.68;101649.28;4803007;29;20047;-83
2023/05/14 06:51:08;;;;;;;17.10;14.40;;;;;;;23.14;43.01;101657.13;4801453;29;20118;-84
2023/05/14 06:53:33;;;;;;;15.75;14.10;;;;;;;23.89;41.28;101661.75;4796834;29;20088;-83
2023/05/14 06:55:59;;;;;;;15.85;14.25;;;;;;;23.46;41.62;101651.63;4796681;29;20041;-84
2023/05/14 06:58:24;;;;;;;16.42;14.77;;;;;;;21.77;44.33;101655.09;4804054;29;20039;-83
2023/05/14 07:00:49;;;;;;;16.77;15.05;;;;;;;21.11;46.48;101647.47;4799678;29;20041;-85
2023/05/14 07:03:15;;;;;;;16.92;14.50;;;;;;;20.73;47.55;101649.81;4794422;29;20457;-88
2023/05/14 07:05:40;;;;;;;16.77;15.00;;;;;;;20.13;49.84;101651.13;4808080;29;20034;-90
2023/05/14 07:08:06;;;;;;;17.73;15.73;;;;;;;19.78;50.87;101647.34;4807771;29;20030;-87
2023/05/14 07:10:32;;;;;;;17.58;15.82;;;;;;;20.79;49.02;101656.25;4818343;29;20048;-88
2023/05/14 07:12:57;;;;;;;16.02;14.38;;;;;;;21.80;45.92;101640.84;4818418;29;20035;-87
2023/05/14 07:15:22;;;;;;;16.90;15.05;;;;;;;22.60;43.69;101644.25;4805452;29;20037;-85
2023/05/14 07:17:48;;;;;;;18.17;15.02;;;;;;;23.58;41.81;101642.34;4803510;29;20452;-85
2023/05/14 07:20:13;;;;;;;16.08;14.05;;;;;;;23.79;40.67;101650.72;4806325;29;20031;-87
2023/05/14 07:22:39;;;;;;;15.50;13.82;;;;;;;24.40;40.52;101646.56;4806933;29;20045;-88
2023/05/14 07:25:05;;;;;;;16.17;13.65;;;;;;;25.82;37.78;101648.75;4806356;29;20050;-88
2023/05/14 07:27:30;;;;;;;13.70;12.43;;;;;;;26.35;36.68;101655.72;4807257;29;20133;-88
2023/05/14 07:29:55;;;;;;;14.88;13.40;;;;;;;25.98;36.77;101656.97;4806610;29;20043;-88
2023/05/14 07:32:21;;;;;;;15.02;13.63;;;;;;;25.95;36.55;101657.53;4807178;29;20037;-88
2023/05/14 07:34:46;;;;;;;14.75;13.25;;;;;;;26.07;36.76;101651.69;4806462;29;20030;-88
2023/05/14 07:37:11;;;;;;;13.77;12.45;;;;;;;26.81;35.24;101645.53;4813097;29;20034;-88
2023/05/14 07:39:37;;;;;;;14.60;13.10;;;;;;;26.78;34.48;101644.13;4820359;29;20365;-88
2023/05/14 07:42:03;;;;;;;13.75;12.30;;;;;;;27.43;33.86;101647.72;4806468;29;20035;-88
2023/05/14 07:44:28;;;;;;;15.20;13.60;;;;;;;27.41;33.72;101641.66;4807708;29;20023;-87
2023/05/14 07:46:54;;;;;;;13.95;12.55;;;;;;;28.04;32.67;101646.19;4824815;29;20395;-88
2023/05/14 07:49:19;;;;;;;13.77;12.48;;;;;;;28.58;31.19;101641.34;4822303;29;20034;-87
2023/05/14 07:51:46;;;;;;;13.88;12.68;;;;;;;28.13;32.37;101638.09;4823149;29;20038;-88
2023/05/14 07:54:12;;;;;;;14.77;12.82;;;;;;;27.53;32.42;101639.34;4818853;29;20034;-87
2023/05/14 07:56:37;;;;;;;14.30;12.68;;;;;;;27.60;32.43;101634.28;4823476;29;20037;-87
2023/05/14 07:59:02;;;;;;;12.82;11.52;;;;;;;27.65;33.89;101633.41;4822529;29;20034;-87
2023/05/14 08:01:28;;;;;;;14.23;12.15;;;;;;;27.61;34.17;101638.69;4822325;29;20053;-87
2023/05/14 08:03:53;;;;;;;13.15;11.90;;;;;;;28.57;32.69;101634.16;4825075;29;20035;-87
2023/05/14 08:06:20;;;;;;;13.40;11.57;;;;;;;28.02;33.77;101631.03;4824270;29;20601;-87
2023/05/14 08:08:46;;;;;;;12.63;11.43;;;;;;;28.92;32.28;101628.34;4821800;29;20475;-87
2023/05/14 08:11:11;;;;;;;12.55;11.30;;;;;;;29.01;31.40;101629.31;4821642;29;20033;-87
2023/05/14 08:13:36;;;;;;;15.60;11.95;;;;;;;28.45;32.47;101625.44;4822425;29;20027;-85
2023/05/14 08:16:02;;;;;;;13.80;12.40;;;;;;;27.49;33.97;101627.22;4821898;29;20045;-85
2023/05/14 08:18:27;;;;;;;15.02;13.65;;;;;;;26.34;36.54;101631.97;4822860;29;20034;-85
2023/05/14 08:20:52;;;;;;;15.25;13.73;;;;;;;26.95;34.70;101624.41;4823092;29;20031;-86
2023/05/14 08:23:18;;;;;;;16.63;12.98;;;;;;;27.21;33.94;101633.28;4820830;29;20034;-86
2023/05/14 08:25:43;;;;;;;13.40;12.02;;;;;;;27.60;33.98;101627.94;4818813;29;20431;-86
2023/05/14 08:28:08;;;;;;;14.77;11.63;;;;;;;29.27;30.91;101631.59;4823395;29;20034;-86
2023/05/14 08:30:34;;;;;;;15.13;13.50;;;;;;;28.24;32.63;101636.81;4822705;29;20487;-86
2023/05/14 08:32:59;;;;;;;12.13;10.93;;;;;;;28.34;31.94;101613.69;4820474;29;20394;-86
2023/05/14 08:35:25;;;;;;;11.40;10.30;;;;;;;27.51;30.89;101625.00;4830257;29;20041;-86
2023/05/14 08:37:51;;;;;;;8.63;7.82;;;;;;;29.30;28.17;101633.75;4832569;29;20898;-86
2023/05/14 08:40:16;;;;;;;12.27;10.77;;;;;;;29.15;29.56;101626.53;4821104;29;20035;-86
2023/05/14 08:42:43;;;;;;;12.75;11.50;;;;;;;28.74;30.12;101619.75;4822193;29;20076;-87
2023/05/14 08:45:19;;;;;;;12.45;11.15;;;;;;;28.09;31.44;101618.47;4803290;29;20053;-86
2023/05/14 08:47:49;;;;;;;10.32;9.32;;;;;;;27.80;29.99;101616.59;4802477;29;20623;-86
2023/05/14 08:50:14;;;;;;;11.18;7.80;;;;;;;29.42;28.02;101615.81;4804395;29;20080;-86
2023/05/14 08:52:39;;;;;;;10.40;8.48;;;;;;;29.91;25.78;101613.44;4803712;29;20043;-85
2023/05/14 08:55:05;;;;;;;12.52;11.40;;;;;;;27.83;32.32;101606.91;4802577;29;20022;-86
2023/05/14 08:57:31;;;;;;;11.30;9.45;;;;;;;28.89;29.08;101602.06;4805977;29;20047;-87
2023/05/14 08:59:57;;;;;;;10.25;9.32;;;;;;;28.96;29.90;101606.38;4801015;29;20031;-86
2023/05/14 09:02:32;;;;;;;12.57;10.75;;;;;;;29.69;29.49;101614.19;4801885;29;20039;-86
2023/05/14 09:04:57;;;;;;;;;;;;;;;29.72;29.70;101608.84;4803779;29;20480;-87
2023/05/14 09:07:23;;;;;;;11.85;10.65;;;;;;;29.55;29.80;101608.63;4804751;29;19928;-86
2023/05/14 09:09:49;;;;;;;10.65;9.57;;;;;;;29.99;29.08;101615.53;4803565;29;20094;-86
2023/05/14 09:12:14;;;;;;;10.50;9.02;;;;;;;30.44;28.66;101605.63;4804387;29;20184;-87
2023/05/14 09:14:40;;;;;;;11.25;9.00;;;;;;;30.86;27.79;101606.28;4804270;29;20038;-86
2023/05/14 09:17:05;;;;;;;10.68;9.38;;;;;;;30.42;28.06;101599.53;4803580;29;20035;-86
2023/05/14 09:19:31;;;;;;;10.75;9.77;;;;;;;30.49;27.81;101606.31;4804101;29;20038;-86
2023/05/14 09:21:59;;;;;;;11.15;9.82;;;;;;;31.11;27.20;101603.94;4803920;29;20027;-86
2023/05/14 09:24:26;;;;;;;11.68;10.55;;;;;;;29.85;28.27;101598.84;4804664;29;20507;-86
2023/05/14 09:27:01;;;;;;;11.63;10.52;;;;;;;30.08;28.24;101605.31;4805738;29;20464;-86
2023/05/14 09:29:26;;;;;;;;;;;;;;;30.78;27.50;101605.09;4805358;29;20034;-85
2023/05/14 09:31:52;;;;;;;11.10;10.10;;;;;;;29.94;28.27;101598.94;4804032;29;20382;-85
2023/05/14 09:34:24;;;;;;;10.07;8.63;;;;;;;31.09;27.58;101598.72;4803797;29;20026;-86
2023/05/14 09:36:53;;;;;;;10.35;9.32;;;;;;;31.13;26.94;101596.09;4803470;29;20038;-85
2023/05/14 09:39:18;;;;;;;10.50;8.85;;;;;;;31.47;26.65;101594.63;4805648;29;20421;-86
2023/05/14 09:41:44;;;;;;;10.20;9.23;;;;;;;31.53;26.74;101587.78;4829508;29;20042;-85
2023/05/14 09:44:09;;;;;;;11.90;9.60;;;;;;;31.61;26.16;101589.75;4812457;29;20113;-83
2023/05/14 09:46:35;;;;;;;11.73;10.52;;;;;;;28.47;30.49;101578.09;4820013;29;20042;-83
2023/05/14 09:49:00;;;;;;;10.75;9.65;;;;;;;28.38;31.39;101575.19;4805719;29;20038;-82
2023/05/14 09:51:28;;;;;;;11.40;9.88;;;;;;;29.67;29.36;101581.19;4821911;29;20038;-83
2023/05/14 09:53:55;;;;;;;10.30;9.30;;;;;;;30.03;28.49;101576.84;4804340;29;20065;-83
2023/05/14 09:56:20;;;;;;;10.63;9.60;;;;;;;30.33;27.98;101585.59;4822741;29;20045;-83
2023/05/14 09:58:45;;;;;;;10.23;9.27;;;;;;;30.33;27.62;101578.09;4820048;29;20030;-83
2023/05/14 10:01:11;;;;;;;10.30;9.05;;;;;;;30.69;27.59;101582.78;4820992;29;20073;-83
2023/05/14 10:03:36;;;;;;;11.15;9.90;;;;;;;29.88;28.49;101572.41;4805014;29;20043;-83
2023/05/14 10:06:04;;;;;;;11.77;9.48;;;;;;;30.42;27.99;101572.59;4825898;29;20579;-83
2023/05/14 10:08:32;;;;;;;11.63;10.48;;;;;;;31.07;26.31;101566.78;4819014;29;20039;-83
2023/05/14 10:10:58;;;;;;;10.25;9.27;;;;;;;30.81;27.59;101564.72;4820871;29;20034;-83
2023/05/14 10:13:34;;;;;;;10.20;9.23;;;;;;;31.40;26.30;101560.91;4822587;29;20038;-83
2023/05/14 10:16:08;;;;;;;11.00;9.93;;;;;;;30.60;26.38;101562.44;4806279;29;20060;-83
2023/05/14 10:18:39;;;;;;;11.40;10.27;;;;;;;29.96;27.87;101560.63;4804650;29;20030;-83
2023/05/14 10:21:05;;;;;;;17.02;10.25;;;;;;;29.90;28.18;101562.66;4821927;29;20042;-83
2023/05/14 10:23:31;;;;;;;11.52;10.52;;;;;;;29.37;28.74;101550.19;4820782;29;20079;-83
2023/05/14 10:25:57;;;;;;;12.02;9.70;;;;;;;29.92;28.06;101548.47;4818815;29;20543;-83
2023/05/14 10:28:22;;;;;;;8.60;7.82;;;;;;;31.43;26.54;101546.34;4790564;29;20114;-83
2023/05/14 10:30:48;;;;;;;10.10;9.18;;;;;;;31.25;25.93;101545.47;4821553;29;20061;-83
2023/05/14 10:33:15;;;;;;;9.68;8.68;;;;;;;30.27;26.75;101543.25;4824197;29;20034;-83
2023/05/14 10:36:03;;;;;;;8.38;7.25;;;;;;;32.83;23.46;101542.00;4825893;29;20495;-83
2023/05/14 10:38:29;;;;;;;8.55;7.47;;;;;;;32.58;23.80;101536.13;4816488;29;20030;-83
2023/05/14 10:40:56;;;;;;;9.07;8.20;;;;;;;31.97;23.80;101540.56;4809274;29;20034;-83
2023/05/14 10:43:24;;;;;;;8.80;7.88;;;;;;;32.06;23.37;101543.34;4827599;29;20083;-83
2023/05/14 10:45:50;;;;;;;8.45;7.65;;;;;;;32.41;23.18;101534.16;4808628;29;20054;-83
2023/05/14 10:48:15;;;;;;;8.60;6.13;;;;;;;33.17;22.03;101540.22;4808413;29;20038;-83
2023/05/14 10:50:41;;;;;;;7.65;6.95;;;;;;;32.21;22.67;101531.72;4809793;29;20031;-83
2023/05/14 10:53:10;;;;;;;8.05;7.35;;;;;;;31.05;23.97;101530.97;4809912;29;20114;-83
2023/05/14 10:55:35;;;;;;;9.98;8.30;;;;;;;31.29;25.48;101527.00;4809849;29;20023;-83
2023/05/14 10:58:02;;;;;;;8.13;7.32;;;;;;;32.33;23.85;101524.66;4810425;29;20034;-83
2023/05/14 11:00:28;;;;;;;8.00;7.20;;;;;;;33.05;22.60;101524.19;4819719;29;20037;-83
2023/05/14 11:02:54;;;;;;;8.13;6.65;;;;;;;32.11;23.65;101518.13;4826131;29;20034;-83
2023/05/14 11:05:20;;;;;;;9.38;6.72;;;;;;;32.30;24.03;101514.22;4826329;29;20026;-82
2023/05/14 11:07:46;;;;;;;6.47;5.78;;;;;;;33.61;21.46;101518.47;4826018;29;20045;-83
2023/05/14 11:10:16;;;;;;;7.60;6.75;;;;;;;32.98;21.41;101515.50;4827875;29;20030;-83
2023/05/14 11:12:42;;;;;;;7.50;6.85;;;;;;;33.74;21.93;101516.56;4829401;29;20074;-83
2023/05/14 11:15:09;;;;;;;7.15;6.45;;;;;;;34.09;22.48;101513.50;4829806;29;20094;-82
2023/05/14 11:17:35;;;;;;;7.25;6.55;;;;;;;33.84;21.80;101516.16;4825097;29;20030;-83
2023/05/14 11:20:00;;;;;;;8.75;7.03;;;;;;;33.61;22.65;101510.09;4828410;29;20042;-83
2023/05/14 11:22:27;;;;;;;8.25;7.38;;;;;;;31.84;24.64;101497.81;4828191;29;20034;-83
2023/05/14 11:24:53;;;;;;;9.02;7.00;;;;;;;32.78;22.88;101501.94;4810136;29;20472;-83